Time;durP1;ratioP1;P1;durP2;ratioP2;P2;SDS_P1;SDS_P2;PMS_P1;PMS_P2;Temp;Humidity;BMP_temperature;BMP_pressure;BME280_temperature;BME280_humidity;BME280_pressure;Samples;Min_cycle;Max_cycle;Signal;HPM_P1;HPM_P2
2021/12/05 00:17:21;;;;;;;1.90;0.82;;;;;;;;;;5134085;27;20649;-65
2021/12/05 00:20:11;;;;;;;3.08;1.45;;;;;;;;;;5133646;27;20195;-64
2021/12/05 00:22:45;;;;;;;5.05;2.65;;;;;;;;;;5133791;27;20193;-64
2021/12/05 00:25:19;;;;;;;4.43;2.35;;;;;;;;;;5134021;27;20604;-64
2021/12/05 00:27:51;;;;;;;2.40;1.10;;;;;;;;;;5134138;27;20184;-64
2021/12/05 00:30:51;;;;;;;3.17;1.13;;;;;;;;;;5133847;27;20525;-66
2021/12/05 00:33:37;;;;;;;3.25;1.00;;;;;;;;;;5133351;27;20236;-64
2021/12/05 00:45:17;;;;;;;1.50;0.60;;;;;;;;;;5069990;28;20228;-64
2021/12/05 00:56:36;;;;;;;1.50;0.70;;;;;;;;;;5066277;28;20201;-64
2021/12/05 00:59:30;;;;;;;1.50;0.60;;;;;;;;;;5133458;27;20183;-64
2021/12/05 01:02:20;;;;;;;1.60;0.55;;;;;;;;;;5132905;27;20550;-65
2021/12/05 01:07:59;;;;;;;1.40;0.60;;;;;;;;;;5036618;28;20192;-64
2021/12/05 01:10:48;;;;;;;1.40;0.60;;;;;;;;;;5112348;28;20193;-65
2021/12/05 01:13:36;;;;;;;3.10;2.03;;;;;;;;;;5112344;28;20205;-65
2021/12/05 01:16:06;;;;;;;5.00;1.80;;;;;;;;;;5112266;28;20609;-64
2021/12/05 01:18:37;;;;;;;9.05;6.38;;;;;;;;;;5126022;28;20188;-64
2021/12/05 01:21:08;;;;;;;3.85;2.53;;;;;;;;;;5133178;28;20202;-65
2021/12/05 01:23:47;;;;;;;3.03;1.90;;;;;;;;;;5132889;28;20195;-64
2021/12/05 01:26:22;;;;;;;4.68;2.83;;;;;;;;;;5133399;28;20241;-64
2021/12/05 01:29:08;;;;;;;2.42;1.00;;;;;;;;;;5132678;28;20544;-64
2021/12/05 01:31:48;;;;;;;2.38;0.80;;;;;;;;;;5133022;28;20207;-65
2021/12/05 01:34:32;;;;;;;1.50;0.88;;;;;;;;;;5132446;28;20762;-65
2021/12/05 01:37:11;;;;;;;1.70;0.65;;;;;;;;;;5131474;28;20573;-65
2021/12/05 01:39:53;;;;;;;1.55;0.73;;;;;;;;;;5112410;28;20189;-64
2021/12/05 01:51:31;;;;;;;12.95;8.75;;;;;;;;;;5029190;28;20684;-65
2021/12/05 01:54:21;;;;;;;3.53;2.30;;;;;;;;;;5103727;28;20649;-64
2021/12/05 02:11:37;;;;;;;1.40;0.60;;;;;;;;;;5099677;28;20185;-64
2021/12/05 02:31:04;;;;;;;4.05;1.40;;;;;;;;;;5136454;27;20226;-65
2021/12/05 02:42:06;;;;;;;1.92;0.90;;;;;;;;;;5133024;27;20302;-63
2021/12/05 02:44:38;;;;;;;4.35;1.30;;;;;;;;;;5136172;27;20241;-64
2021/12/05 02:47:09;;;;;;;1.95;1.10;;;;;;;;;;5135417;27;20187;-64
2021/12/05 02:49:40;;;;;;;2.10;1.05;;;;;;;;;;5136023;27;20187;-64
2021/12/05 02:52:12;;;;;;;4.82;0.98;;;;;;;;;;5129503;27;20586;-64
2021/12/05 02:54:48;;;;;;;1.80;0.80;;;;;;;;;;5115324;28;20217;-63
2021/12/05 02:57:19;;;;;;;3.05;1.10;;;;;;;;;;5115081;28;20189;-64
2021/12/05 02:59:52;;;;;;;2.53;1.10;;;;;;;;;;5118091;27;20180;-64
2021/12/05 03:02:27;;;;;;;1.70;0.73;;;;;;;;;;5135742;27;20219;-64
2021/12/05 03:04:59;;;;;;;3.25;1.00;;;;;;;;;;5130821;27;20187;-64
2021/12/05 03:07:37;;;;;;;2.50;1.08;;;;;;;;;;5115133;28;20648;-64
2021/12/05 03:10:13;;;;;;;2.67;1.00;;;;;;;;;;5119494;27;20187;-64
2021/12/05 03:12:46;;;;;;;5.88;1.20;;;;;;;;;;5135510;27;20199;-64
2021/12/05 03:15:19;;;;;;;5.15;1.05;;;;;;;;;;5133408;27;20224;-64
2021/12/05 03:17:49;;;;;;;2.80;1.10;;;;;;;;;;5120335;27;20192;-64
2021/12/05 03:20:19;;;;;;;7.18;1.30;;;;;;;;;;5114655;28;20196;-64
2021/12/05 03:22:48;;;;;;;2.38;1.20;;;;;;;;;;5127297;27;20714;-65
2021/12/05 03:25:18;;;;;;;1.95;1.13;;;;;;;;;;5126265;27;20192;-63
2021/12/05 03:27:48;;;;;;;3.20;1.30;;;;;;;;;;5114838;28;20246;-64
2021/12/05 03:30:19;;;;;;;4.32;1.20;;;;;;;;;;5121375;27;20180;-64
2021/12/05 03:32:50;;;;;;;3.72;1.25;;;;;;;;;;5135179;27;20220;-63
2021/12/05 03:35:18;;;;;;;5.05;1.23;;;;;;;;;;5134679;27;20240;-64
2021/12/05 03:37:47;;;;;;;2.30;1.10;;;;;;;;;;5134921;27;20196;-64
2021/12/05 03:40:17;;;;;;;3.05;1.70;;;;;;;;;;5134378;27;20220;-64
2021/12/05 03:42:49;;;;;;;5.95;1.70;;;;;;;;;;5135115;27;20192;-64
2021/12/05 03:45:19;;;;;;;4.20;1.60;;;;;;;;;;5134304;27;20777;-63
2021/12/05 03:47:50;;;;;;;5.72;2.00;;;;;;;;;;5134837;27;20271;-64
2021/12/05 03:50:19;;;;;;;5.45;1.20;;;;;;;;;;5134285;27;20191;-64
2021/12/05 03:52:48;;;;;;;2.10;1.05;;;;;;;;;;5134896;27;20196;-64
2021/12/05 03:55:17;;;;;;;2.13;1.00;;;;;;;;;;5134181;27;20218;-63
2021/12/05 03:57:48;;;;;;;7.97;1.50;;;;;;;;;;5134848;27;20244;-64
2021/12/05 04:00:20;;;;;;;3.28;1.33;;;;;;;;;;5133978;27;20196;-64
2021/12/05 04:02:54;;;;;;;2.42;1.13;;;;;;;;;;5134933;27;20248;-62
2021/12/05 04:05:27;;;;;;;1.95;0.98;;;;;;;;;;5114981;27;20221;-63
2021/12/05 04:07:57;;;;;;;2.92;1.63;;;;;;;;;;5117076;27;20194;-64
2021/12/05 04:10:28;;;;;;;3.28;2.10;;;;;;;;;;5134797;27;20192;-65
2021/12/05 04:12:57;;;;;;;4.25;1.15;;;;;;;;;;5134282;27;20271;-64
2021/12/05 04:15:28;;;;;;;5.18;1.52;;;;;;;;;;5134431;27;20215;-65
2021/12/05 04:17:58;;;;;;;2.05;1.23;;;;;;;;;;5134101;27;20192;-64
2021/12/05 04:20:26;;;;;;;3.75;1.20;;;;;;;;;;5134733;27;20184;-64
2021/12/05 04:22:55;;;;;;;3.95;1.27;;;;;;;;;;5131348;27;20706;-64
2021/12/05 04:25:22;;;;;;;2.83;1.17;;;;;;;;;;5113887;28;20211;-64
2021/12/05 04:27:51;;;;;;;3.53;1.15;;;;;;;;;;5113330;27;20193;-65
2021/12/05 04:30:21;;;;;;;5.75;1.30;;;;;;;;;;5134447;27;20241;-64
2021/12/05 04:32:52;;;;;;;5.20;1.88;;;;;;;;;;5133911;27;20584;-67
2021/12/05 04:35:20;;;;;;;3.10;1.58;;;;;;;;;;5133290;27;20700;-64
2021/12/05 04:37:47;;;;;;;2.40;1.40;;;;;;;;;;5121798;27;20216;-64
2021/12/05 04:40:15;;;;;;;8.00;1.70;;;;;;;;;;5114293;28;20283;-64
2021/12/05 04:42:43;;;;;;;2.63;1.42;;;;;;;;;;5133935;27;20202;-65
2021/12/05 04:45:18;;;;;;;3.08;1.00;;;;;;;;;;5123418;27;20267;-64
2021/12/05 04:47:47;;;;;;;5.40;1.77;;;;;;;;;;5113405;28;20249;-63
2021/12/05 04:50:21;;;;;;;4.43;1.30;;;;;;;;;;5113321;28;20189;-64
2021/12/05 04:52:49;;;;;;;2.88;1.20;;;;;;;;;;5113495;28;20193;-63
2021/12/05 04:55:16;;;;;;;3.25;1.30;;;;;;;;;;5122853;27;20244;-65
2021/12/05 04:57:44;;;;;;;5.10;2.05;;;;;;;;;;5133708;27;20184;-64
2021/12/05 05:00:16;;;;;;;4.18;1.85;;;;;;;;;;5132545;27;20269;-66
2021/12/05 05:02:48;;;;;;;2.53;1.05;;;;;;;;;;5113186;28;20284;-64
2021/12/05 05:05:18;;;;;;;3.65;1.48;;;;;;;;;;5121608;27;20184;-65
2021/12/05 05:07:47;;;;;;;4.80;0.90;;;;;;;;;;5134006;27;20188;-64
2021/12/05 05:10:24;;;;;;;2.08;0.95;;;;;;;;;;5115288;27;20708;-64
2021/12/05 05:12:53;;;;;;;4.85;1.00;;;;;;;;;;5113064;28;20257;-64
2021/12/05 05:15:26;;;;;;;2.15;0.90;;;;;;;;;;5129616;28;20219;-64
2021/12/05 05:17:56;;;;;;;2.03;1.05;;;;;;;;;;5133847;28;20188;-64
2021/12/05 05:20:28;;;;;;;2.13;1.05;;;;;;;;;;5133773;28;20180;-66
2021/12/05 05:26:21;;;;;;;5.57;0.93;;;;;;;;;;5132842;28;20199;-64
2021/12/05 05:58:59;;;;;;;5.40;1.80;;;;;;;;;;6059119;22;4702270;-64
2021/12/05 06:01:55;;;;;;;5.55;1.65;;;;;;;;;;6253663;23;20647;-65
2021/12/05 06:04:22;;;;;;;2.45;1.40;;;;;;;;;;6254549;23;20150;-64
2021/12/05 06:06:52;;;;;;;2.47;1.63;;;;;;;;;;6253705;23;20268;-64
2021/12/05 06:09:22;;;;;;;3.78;1.40;;;;;;;;;;6254157;23;20198;-64
2021/12/05 06:11:52;;;;;;;4.25;1.77;;;;;;;;;;6254182;23;20546;-64
2021/12/05 06:14:33;;;;;;;3.95;1.58;;;;;;;;;;6253856;23;20185;-64
2021/12/05 06:17:03;;;;;;;4.97;2.28;;;;;;;;;;6253737;23;20202;-64
2021/12/05 06:19:32;;;;;;;3.22;2.60;;;;;;;;;;6253971;23;20178;-65
2021/12/05 06:22:02;;;;;;;5.60;4.47;;;;;;;;;;6253925;23;20174;-65
2021/12/05 06:24:33;;;;;;;6.38;4.15;;;;;;;;;;6253816;23;20684;-63
2021/12/05 06:27:05;;;;;;;10.70;4.22;;;;;;;;;;6253395;23;20231;-65
2021/12/05 06:29:39;;;;;;;10.10;4.88;;;;;;;;;;6254161;23;20154;-65
2021/12/05 06:37:48;;;;;;;7.85;3.90;;;;;;;;;;6253546;23;20238;-65
2021/12/05 06:40:33;;;;;;;15.93;5.05;;;;;;;;;;6253698;23;20154;-64
2021/12/05 06:43:04;;;;;;;6.47;3.47;;;;;;;;;;6251822;23;20150;-65
2021/12/05 06:48:21;;;;;;;5.40;2.63;;;;;;;;;;6253581;23;20740;-64
2021/12/05 06:50:52;;;;;;;6.70;3.10;;;;;;;;;;6253557;23;20185;-64
2021/12/05 06:53:22;;;;;;;3.75;2.55;;;;;;;;;;6252748;23;20155;-64
2021/12/05 06:55:54;;;;;;;5.38;3.00;;;;;;;;;;6253632;23;20177;-64
2021/12/05 06:58:26;;;;;;;5.75;2.00;;;;;;;;;;6250503;23;20194;-65
2021/12/05 07:00:56;;;;;;;6.13;2.63;;;;;;;;;;6246708;23;20527;-64
2021/12/05 07:03:23;;;;;;;4.82;2.17;;;;;;;;;;6247011;23;20166;-64
2021/12/05 07:05:56;;;;;;;3.38;2.58;;;;;;;;;;6246368;23;20162;-64
2021/12/05 07:08:36;;;;;;;4.20;1.95;;;;;;;;;;6246841;23;20182;-65
2021/12/05 07:11:12;;;;;;;6.40;3.85;;;;;;;;;;6246521;23;20194;-64
2021/12/05 07:16:31;;;;;;;14.13;9.85;;;;;;;;;;6244287;23;20165;-64
2021/12/05 07:19:17;;;;;;;8.23;4.78;;;;;;;;;;6246995;23;20232;-64
2021/12/05 07:21:49;;;;;;;10.07;7.80;;;;;;;;;;6243994;23;20157;-64
2021/12/05 07:24:29;;;;;;;8.85;4.35;;;;;;;;;;6246523;23;20155;-65
2021/12/05 07:40:19;;;;;;;4.10;2.90;;;;;;;;;;6244328;23;20182;-64
2021/12/05 07:41:12;;;;;;;7.43;2.80;;;;;;;;;;6246152;23;20157;-65
2021/12/05 07:43:42;;;;;;;8.23;3.00;;;;;;;;;;6246575;23;20182;-64
2021/12/05 07:46:09;;;;;;;4.65;2.67;;;;;;;;;;6245519;23;20717;-64
2021/12/05 07:48:41;;;;;;;6.47;2.45;;;;;;;;;;6246296;23;20520;-64
2021/12/05 07:51:14;;;;;;;6.90;1.73;;;;;;;;;;6246177;23;20159;-65
2021/12/05 07:53:49;;;;;;;4.05;1.50;;;;;;;;;;6242979;23;20150;-66
2021/12/05 07:56:21;;;;;;;4.03;2.03;;;;;;;;;;6245967;23;20158;-64
2021/12/05 07:59:04;;;;;;;3.75;1.50;;;;;;;;;;6244984;23;20516;-66
2021/12/05 08:15:29;;;;;;;9.07;1.65;;;;;;;;;;6243205;23;20173;-64
2021/12/05 08:17:58;;;;;;;4.95;1.50;;;;;;;;;;6244613;23;20147;-66
2021/12/05 08:20:28;;;;;;;4.05;1.35;;;;;;;;;;6245238;23;20166;-65
2021/12/05 08:22:56;;;;;;;5.70;2.33;;;;;;;;;;6245115;23;20165;-65
2021/12/05 08:25:27;;;;;;;4.72;2.15;;;;;;;;;;6245786;23;20158;-64
2021/12/05 08:28:06;;;;;;;2.78;2.35;;;;;;;;;;6245356;23;20192;-64
2021/12/05 08:30:39;;;;;;;6.40;5.47;;;;;;;;;;6245608;23;20479;-65
2021/12/05 08:33:24;;;;;;;4.00;2.85;;;;;;;;;;6244288;23;20710;-65
2021/12/05 09:23:53;;;;;;;11.80;5.28;;;;;;;;;;6093022;23;20165;-64
2021/12/05 09:26:49;;;;;;;11.88;7.18;;;;;;;;;;6188285;23;20193;-65
2021/12/05 09:29:47;;;;;;;9.18;5.97;;;;;;;;;;6244370;23;20154;-64
2021/12/05 10:03:01;;;;;;;7.38;3.67;;;;;;;;;;6243823;23;20247;-65
2021/12/05 10:11:24;;;;;;;12.70;7.00;;;;;;;;;;6104620;23;20483;-66
2021/12/05 10:17:01;;;;;;;5.68;3.03;;;;;;;;;;6167490;23;20158;-65
2021/12/05 10:36:13;;;;;;;7.38;3.95;;;;;;;;;;6246243;23;20162;-65
2021/12/05 10:38:46;;;;;;;4.47;2.90;;;;;;;;;;6245295;23;20233;-65
2021/12/05 10:41:47;;;;;;;3.45;1.98;;;;;;;;;;6246094;23;20150;-64
2021/12/05 10:44:16;;;;;;;4.75;2.20;;;;;;;;;;6246096;23;20200;-65
2021/12/05 10:46:49;;;;;;;6.43;2.80;;;;;;;;;;6245801;23;20530;-65
2021/12/05 10:49:25;;;;;;;6.05;3.90;;;;;;;;;;6246448;23;20606;-65
2021/12/05 10:51:57;;;;;;;8.68;3.83;;;;;;;;;;6246611;23;20229;-64
2021/12/05 10:54:25;;;;;;;11.60;3.30;;;;;;;;;;6245303;23;20660;-71
2021/12/05 10:56:55;;;;;;;5.20;3.42;;;;;;;;;;6245704;23;20174;-65
2021/12/05 10:59:25;;;;;;;6.32;3.72;;;;;;;;;;6246120;23;20150;-65
2021/12/05 11:01:56;;;;;;;5.60;2.80;;;;;;;;;;6245262;23;20173;-65
2021/12/05 11:04:25;;;;;;;4.00;1.95;;;;;;;;;;6246236;23;20165;-65
2021/12/05 11:06:53;;;;;;;4.60;1.77;;;;;;;;;;6245759;23;20166;-65
2021/12/05 11:09:23;;;;;;;6.40;2.45;;;;;;;;;;6246034;23;20244;-65
2021/12/05 11:11:51;;;;;;;3.10;1.95;;;;;;;;;;6245938;23;20170;-66
2021/12/05 11:14:19;;;;;;;2.65;1.50;;;;;;;;;;6244434;23;20216;-64
2021/12/05 11:16:51;;;;;;;4.63;1.65;;;;;;;;;;6245869;23;20568;-64
2021/12/05 11:19:23;;;;;;;3.72;2.42;;;;;;;;;;6241652;23;20178;-66
2021/12/05 11:21:54;;;;;;;4.22;1.60;;;;;;;;;;6245564;23;20229;-64
2021/12/05 11:24:26;;;;;;;3.22;1.95;;;;;;;;;;6245025;23;20174;-66
2021/12/05 11:27:09;;;;;;;4.65;1.95;;;;;;;;;;6245616;23;20186;-65
2021/12/05 11:29:54;;;;;;;21.20;10.50;;;;;;;;;;6244718;23;20208;-64
2021/12/05 11:32:32;;;;;;;13.68;5.60;;;;;;;;;;6244965;23;20158;-65
2021/12/05 11:35:03;;;;;;;10.60;6.38;;;;;;;;;;6242912;23;20185;-64
2021/12/05 11:37:49;;;;;;;6.35;3.03;;;;;;;;;;6245218;23;20167;-65
2021/12/05 11:40:22;;;;;;;5.65;3.15;;;;;;;;;;6245310;23;20194;-65
2021/12/05 11:42:59;;;;;;;8.15;3.83;;;;;;;;;;6245395;23;20159;-64
2021/12/05 11:45:31;;;;;;;4.68;3.22;;;;;;;;;;6245867;23;20460;-65
2021/12/05 11:47:59;;;;;;;6.22;4.25;;;;;;;;;;6239857;23;20178;-65
2021/12/05 11:50:35;;;;;;;17.55;8.18;;;;;;;;;;6244686;23;20163;-66
2021/12/05 11:53:18;;;;;;;4.30;2.40;;;;;;;;;;6244751;23;20170;-64
2021/12/05 11:55:51;;;;;;;6.78;2.70;;;;;;;;;;6245723;23;20154;-65
2021/12/05 11:58:40;;;;;;;5.13;2.78;;;;;;;;;;6244302;23;20190;-64
2021/12/05 12:01:14;;;;;;;5.13;2.35;;;;;;;;;;6245768;23;20200;-70
2021/12/05 12:03:43;;;;;;;5.40;2.50;;;;;;;;;;6245221;23;20161;-65
2021/12/05 12:06:19;;;;;;;9.50;6.97;;;;;;;;;;6240802;23;20169;-64
2021/12/05 12:08:50;;;;;;;9.68;5.55;;;;;;;;;;6245329;23;20571;-65
2021/12/05 12:11:19;;;;;;;9.32;6.05;;;;;;;;;;6246343;23;20169;-64
2021/12/05 12:13:47;;;;;;;11.82;5.32;;;;;;;;;;6245597;23;20167;-65
2021/12/05 12:16:16;;;;;;;5.47;3.63;;;;;;;;;;6244869;23;20173;-65
2021/12/05 12:18:47;;;;;;;5.60;3.15;;;;;;;;;;6245430;23;20609;-65
2021/12/05 12:21:19;;;;;;;5.95;3.85;;;;;;;;;;6245054;23;20598;-65
2021/12/05 12:23:47;;;;;;;7.93;3.50;;;;;;;;;;6245491;23;20159;-66
2021/12/05 12:26:16;;;;;;;4.80;2.58;;;;;;;;;;6244288;23;20245;-65
2021/12/05 12:28:43;;;;;;;5.43;3.60;;;;;;;;;;6244942;23;20221;-64
2021/12/05 12:31:13;;;;;;;5.82;3.13;;;;;;;;;;6245320;23;20163;-65
2021/12/05 12:33:44;;;;;;;4.75;3.00;;;;;;;;;;6245024;23;20636;-65
2021/12/05 12:36:12;;;;;;;6.82;3.50;;;;;;;;;;6243517;23;20236;-65
2021/12/05 12:38:55;;;;;;;5.82;3.20;;;;;;;;;;6245363;23;20166;-64
2021/12/05 12:41:25;;;;;;;4.35;3.08;;;;;;;;;;6244757;23;20593;-64
2021/12/05 12:43:53;;;;;;;7.55;2.55;;;;;;;;;;6245692;23;20193;-64
2021/12/05 12:46:33;;;;;;;9.00;2.95;;;;;;;;;;6240387;23;20190;-65
2021/12/05 12:49:02;;;;;;;7.53;2.47;;;;;;;;;;6243932;23;20201;-65
2021/12/05 12:51:32;;;;;;;3.83;2.00;;;;;;;;;;6243632;23;20244;-64
2021/12/05 12:54:01;;;;;;;5.05;2.67;;;;;;;;;;6244946;23;20193;-64
2021/12/05 12:56:30;;;;;;;13.05;4.32;;;;;;;;;;6244035;23;20609;-64
2021/12/05 12:59:00;;;;;;;9.40;3.53;;;;;;;;;;6231588;22;20186;-66
2021/12/05 13:01:49;;;;;;;6.90;2.78;;;;;;;;;;6243055;23;20153;-64
2021/12/05 13:04:37;;;;;;;4.55;2.38;;;;;;;;;;6244082;23;20154;-63
2021/12/05 13:10:00;;;;;;;10.68;4.82;;;;;;;;;;6244721;23;20157;-65
2021/12/05 13:10:20;;;;;;;12.40;5.20;;;;;;;;;;6244827;23;20151;-64
2021/12/05 13:12:51;;;;;;;8.55;4.75;;;;;;;;;;6244365;23;20460;-65
2021/12/05 13:15:22;;;;;;;8.60;5.50;;;;;;;;;;6245038;23;20150;-64
2021/12/05 13:17:50;;;;;;;7.60;2.95;;;;;;;;;;6245027;23;20239;-63
2021/12/05 13:20:24;;;;;;;6.32;3.28;;;;;;;;;;6241942;23;20189;-64
2021/12/05 13:23:06;;;;;;;4.70;2.33;;;;;;;;;;6243962;23;20659;-64
2021/12/05 13:25:37;;;;;;;9.25;3.30;;;;;;;;;;6244125;23;20192;-65
2021/12/05 13:28:23;;;;;;;3.75;1.88;;;;;;;;;;6244506;23;20182;-64
2021/12/05 13:30:52;;;;;;;7.00;2.88;;;;;;;;;;6242590;23;20636;-64
2021/12/05 13:33:20;;;;;;;3.42;2.05;;;;;;;;;;6244290;23;20170;-64
2021/12/05 13:35:48;;;;;;;4.05;2.10;;;;;;;;;;6243919;23;20196;-65
2021/12/05 13:38:32;;;;;;;4.35;1.73;;;;;;;;;;6244837;23;20529;-64
2021/12/05 13:41:11;;;;;;;4.72;2.05;;;;;;;;;;6244051;23;20159;-66
2021/12/05 13:43:38;;;;;;;3.15;2.17;;;;;;;;;;6244682;23;20309;-64
2021/12/05 13:46:22;;;;;;;3.45;2.15;;;;;;;;;;6244473;23;20172;-64
2021/12/05 13:48:52;;;;;;;3.70;2.15;;;;;;;;;;6243476;23;20197;-64
2021/12/05 13:51:24;;;;;;;5.40;2.63;;;;;;;;;;6243978;23;20248;-66
2021/12/05 13:53:52;;;;;;;10.52;3.40;;;;;;;;;;6244895;23;20158;-64
2021/12/05 13:56:24;;;;;;;4.53;2.03;;;;;;;;;;6244570;23;20618;-64
2021/12/05 13:58:59;;;;;;;12.50;6.20;;;;;;;;;;6244805;23;20196;-70
2021/12/05 14:01:30;;;;;;;6.30;3.30;;;;;;;;;;6242804;23;20151;-65
2021/12/05 14:04:08;;;;;;;7.47;3.00;;;;;;;;;;6244440;23;20253;-65
2021/12/05 14:06:38;;;;;;;4.32;1.70;;;;;;;;;;6241246;23;20178;-64
2021/12/05 14:09:08;;;;;;;4.13;2.35;;;;;;;;;;6245782;23;20194;-63
2021/12/05 14:11:36;;;;;;;3.35;2.00;;;;;;;;;;6246505;23;20210;-65
2021/12/05 14:14:04;;;;;;;3.53;1.83;;;;;;;;;;6246528;23;20245;-64
2021/12/05 14:16:32;;;;;;;2.58;1.50;;;;;;;;;;6246946;23;20531;-64
2021/12/05 14:18:59;;;;;;;6.97;1.60;;;;;;;;;;6246722;23;20531;-64
2021/12/05 14:21:41;;;;;;;6.25;1.95;;;;;;;;;;6246634;23;20228;-64
2021/12/05 14:24:09;;;;;;;3.78;2.13;;;;;;;;;;6245304;23;20154;-64
2021/12/05 14:26:39;;;;;;;5.03;2.65;;;;;;;;;;6246443;23;20167;-64
2021/12/05 14:29:09;;;;;;;4.47;2.33;;;;;;;;;;6246178;23;20193;-64
2021/12/05 14:31:37;;;;;;;4.53;1.90;;;;;;;;;;6243407;23;20457;-65
2021/12/05 14:34:05;;;;;;;6.65;2.53;;;;;;;;;;6245028;23;20220;-64
2021/12/05 14:36:34;;;;;;;3.67;1.92;;;;;;;;;;6246342;23;20173;-66
2021/12/05 14:39:10;;;;;;;3.22;1.58;;;;;;;;;;6244531;23;20170;-65
2021/12/05 14:41:39;;;;;;;4.20;2.15;;;;;;;;;;6245973;23;20154;-66
2021/12/05 14:44:07;;;;;;;4.63;1.65;;;;;;;;;;6245536;23;20219;-64
2021/12/05 14:46:35;;;;;;;6.15;2.20;;;;;;;;;;6245683;23;20224;-66
2021/12/05 14:49:05;;;;;;;5.80;3.03;;;;;;;;;;6244558;23;20190;-65
2021/12/05 14:51:34;;;;;;;5.28;1.90;;;;;;;;;;6245676;23;20154;-64
2021/12/05 14:54:02;;;;;;;5.47;2.45;;;;;;;;;;6246176;23;20162;-66
2021/12/05 14:56:38;;;;;;;3.78;2.05;;;;;;;;;;6246445;23;20249;-64
2021/12/05 14:59:08;;;;;;;8.07;1.27;;;;;;;;;;6244628;23;20227;-64
2021/12/05 15:01:35;;;;;;;3.42;1.40;;;;;;;;;;6245792;23;20544;-64
2021/12/05 15:04:06;;;;;;;3.05;1.30;;;;;;;;;;6245333;23;20170;-64
2021/12/05 15:06:39;;;;;;;4.70;1.13;;;;;;;;;;6245677;23;20590;-65
2021/12/05 15:09:08;;;;;;;2.35;1.30;;;;;;;;;;6245425;23;20260;-64
2021/12/05 15:11:37;;;;;;;2.40;1.10;;;;;;;;;;6245040;23;20166;-66
2021/12/05 15:14:05;;;;;;;4.80;1.25;;;;;;;;;;6245658;23;20245;-65
2021/12/05 15:16:33;;;;;;;4.70;1.60;;;;;;;;;;6245494;23;20166;-64
2021/12/05 15:19:05;;;;;;;4.15;1.58;;;;;;;;;;6245924;23;20232;-64
2021/12/05 15:21:42;;;;;;;3.35;1.60;;;;;;;;;;6246034;23;20213;-64
2021/12/05 15:24:14;;;;;;;6.03;2.45;;;;;;;;;;6245691;23;20609;-64
2021/12/05 15:26:43;;;;;;;2.00;1.00;;;;;;;;;;6243664;23;20610;-66
2021/12/05 15:29:13;;;;;;;4.07;1.60;;;;;;;;;;6244100;23;20197;-64
2021/12/05 15:31:41;;;;;;;7.15;3.40;;;;;;;;;;6244218;23;20168;-64
2021/12/05 15:34:19;;;;;;;7.80;2.65;;;;;;;;;;6244858;23;20162;-64
2021/12/05 15:36:46;;;;;;;5.15;2.72;;;;;;;;;;6245156;23;20158;-64
2021/12/05 15:39:19;;;;;;;6.47;2.58;;;;;;;;;;6245652;23;20166;-65
2021/12/05 15:41:49;;;;;;;5.43;3.58;;;;;;;;;;6245129;23;20154;-64
2021/12/05 15:44:43;;;;;;;3.83;2.90;;;;;;;;;;6245338;23;20170;-64
2021/12/05 15:47:12;;;;;;;5.65;3.78;;;;;;;;;;6122180;23;20169;-64
2021/12/05 15:49:44;;;;;;;4.60;3.13;;;;;;;;;;6121905;23;20200;-65
2021/12/05 15:52:12;;;;;;;4.07;2.47;;;;;;;;;;6225035;23;20224;-64
2021/12/05 15:54:40;;;;;;;5.38;2.28;;;;;;;;;;6245153;23;20166;-64
2021/12/05 15:57:13;;;;;;;3.05;2.33;;;;;;;;;;6245051;23;20193;-65
2021/12/05 15:59:42;;;;;;;4.10;1.90;;;;;;;;;;6245310;23;20158;-64
2021/12/05 16:02:11;;;;;;;6.57;1.98;;;;;;;;;;6245548;23;20520;-64
2021/12/05 16:04:39;;;;;;;5.78;2.70;;;;;;;;;;6244453;23;20261;-65
2021/12/05 16:07:10;;;;;;;4.78;2.50;;;;;;;;;;6244990;23;20618;-64
2021/12/05 16:09:39;;;;;;;3.92;3.53;;;;;;;;;;6245102;23;20210;-65
2021/12/05 16:12:11;;;;;;;7.95;3.60;;;;;;;;;;6245006;23;20166;-65
2021/12/05 16:14:42;;;;;;;4.68;3.33;;;;;;;;;;6245054;23;20150;-64
2021/12/05 16:17:20;;;;;;;8.57;6.05;;;;;;;;;;6244919;23;20241;-64
2021/12/05 16:20:18;;;;;;;8.05;4.03;;;;;;;;;;6245477;23;20212;-64
2021/12/05 16:23:13;;;;;;;3.22;2.00;;;;;;;;;;6122367;23;20557;-66
2021/12/05 16:25:48;;;;;;;4.85;2.10;;;;;;;;;;6239832;23;20247;-63
2021/12/05 16:28:17;;;;;;;10.73;4.10;;;;;;;;;;6241013;23;20181;-64
2021/12/05 16:30:46;;;;;;;7.07;4.97;;;;;;;;;;6244109;23;20186;-63
2021/12/05 16:33:14;;;;;;;8.55;4.20;;;;;;;;;;6243378;23;20539;-64
2021/12/05 16:35:43;;;;;;;5.30;3.65;;;;;;;;;;6244041;23;20625;-64
2021/12/05 16:38:20;;;;;;;8.10;4.38;;;;;;;;;;6244072;23;20200;-64
2021/12/05 16:40:53;;;;;;;6.95;4.28;;;;;;;;;;6245378;23;20217;-63
2021/12/05 16:43:22;;;;;;;15.15;3.70;;;;;;;;;;6243637;23;20163;-63
2021/12/05 16:45:49;;;;;;;8.30;3.90;;;;;;;;;;6245132;23;20178;-64
2021/12/05 16:48:17;;;;;;;12.48;4.82;;;;;;;;;;6244400;23;20228;-63
2021/12/05 16:50:47;;;;;;;7.00;4.57;;;;;;;;;;6244575;23;20187;-64
2021/12/05 16:53:15;;;;;;;9.90;6.68;;;;;;;;;;6244777;23;20162;-64
2021/12/05 16:55:45;;;;;;;7.95;5.80;;;;;;;;;;6245164;23;20220;-64
2021/12/05 16:58:17;;;;;;;8.85;5.88;;;;;;;;;;6244647;23;20268;-66
2021/12/05 17:00:50;;;;;;;12.80;6.25;;;;;;;;;;6244720;23;20161;-64
2021/12/05 17:03:19;;;;;;;10.15;6.50;;;;;;;;;;6244803;23;20543;-63
2021/12/05 17:05:48;;;;;;;9.52;5.70;;;;;;;;;;6244836;23;20166;-64
2021/12/05 17:08:17;;;;;;;13.20;7.38;;;;;;;;;;6243721;23;20168;-63
2021/12/05 17:10:47;;;;;;;12.13;6.25;;;;;;;;;;6244830;23;20459;-63
2021/12/05 17:13:21;;;;;;;9.73;6.85;;;;;;;;;;6244394;23;20155;-64
2021/12/05 17:15:58;;;;;;;13.77;9.25;;;;;;;;;;6242920;23;20687;-64
2021/12/05 17:18:27;;;;;;;13.77;8.02;;;;;;;;;;6244812;23;20185;-64
2021/12/05 17:20:55;;;;;;;10.55;6.45;;;;;;;;;;6244542;23;20232;-64
2021/12/05 17:23:25;;;;;;;12.52;6.68;;;;;;;;;;6244797;23;20170;-64
2021/12/05 17:25:54;;;;;;;12.25;7.72;;;;;;;;;;6240520;23;20240;-64
2021/12/05 17:28:31;;;;;;;13.65;9.23;;;;;;;;;;6244730;23;20500;-63
2021/12/05 17:31:04;;;;;;;16.83;8.90;;;;;;;;;;6244321;23;20491;-63
2021/12/05 17:33:33;;;;;;;10.98;7.90;;;;;;;;;;6244388;23;20159;-63
2021/12/05 17:36:15;;;;;;;13.05;6.68;;;;;;;;;;6244126;23;20162;-64
2021/12/05 17:38:42;;;;;;;12.32;4.50;;;;;;;;;;6244957;23;20159;-64
2021/12/05 17:41:10;;;;;;;8.00;6.82;;;;;;;;;;6243832;23;20174;-64
2021/12/05 17:43:37;;;;;;;13.25;8.82;;;;;;;;;;6244233;23;20166;-64
2021/12/05 17:46:13;;;;;;;20.10;11.60;;;;;;;;;;6244196;23;20249;-66
2021/12/05 17:48:41;;;;;;;29.95;16.90;;;;;;;;;;6244571;23;20177;-62
2021/12/05 17:51:12;;;;;;;20.60;14.77;;;;;;;;;;6244320;23;20201;-64
2021/12/05 17:53:40;;;;;;;23.23;12.30;;;;;;;;;;6244613;23;20173;-63
2021/12/05 17:56:15;;;;;;;36.63;26.70;;;;;;;;;;6244839;23;20224;-63
2021/12/05 17:59:04;;;;;;;25.95;17.52;;;;;;;;;;6243557;22;20688;-65
2021/12/05 18:04:19;;;;;;;16.55;6.47;;;;;;;;;;6244893;23;20228;-64
2021/12/05 18:06:47;;;;;;;12.73;7.40;;;;;;;;;;6243956;23;20169;-65
2021/12/05 18:09:14;;;;;;;21.13;13.88;;;;;;;;;;6243771;23;20166;-63
2021/12/05 18:11:42;;;;;;;25.95;14.35;;;;;;;;;;6243783;23;20177;-63
2021/12/05 18:14:10;;;;;;;21.65;11.57;;;;;;;;;;6243746;23;20170;-65
2021/12/05 18:16:39;;;;;;;19.83;12.50;;;;;;;;;;6243387;23;20167;-63
2021/12/05 18:19:07;;;;;;;16.73;11.85;;;;;;;;;;6243971;23;20166;-64
2021/12/05 18:21:36;;;;;;;22.65;14.13;;;;;;;;;;6244436;23;20170;-64
2021/12/05 18:24:04;;;;;;;32.53;24.90;;;;;;;;;;6244045;23;20249;-64
2021/12/05 18:26:31;;;;;;;35.03;26.13;;;;;;;;;;6244263;23;20166;-64
2021/12/05 18:28:59;;;;;;;25.40;18.60;;;;;;;;;;6244415;23;20228;-63
2021/12/05 18:31:34;;;;;;;20.05;17.08;;;;;;;;;;6243909;23;20190;-63
2021/12/05 18:34:04;;;;;;;26.92;17.45;;;;;;;;;;6244553;23;20216;-63
2021/12/05 18:36:32;;;;;;;18.65;12.35;;;;;;;;;;6244021;23;20593;-64
2021/12/05 18:39:00;;;;;;;25.23;12.88;;;;;;;;;;6244370;23;20245;-63
2021/12/05 18:41:29;;;;;;;22.45;13.82;;;;;;;;;;6243995;23;20166;-63
2021/12/05 18:44:00;;;;;;;28.38;16.88;;;;;;;;;;6244422;23;20173;-63
2021/12/05 18:46:28;;;;;;;28.75;18.35;;;;;;;;;;6243988;23;20229;-66
2021/12/05 18:48:55;;;;;;;25.55;15.15;;;;;;;;;;6244137;23;20173;-65
2021/12/05 18:51:24;;;;;;;16.58;13.20;;;;;;;;;;6244002;23;20186;-64
2021/12/05 18:53:51;;;;;;;17.90;11.73;;;;;;;;;;6244444;23;20166;-65
2021/12/05 18:56:19;;;;;;;14.20;10.05;;;;;;;;;;6246122;23;20220;-64
2021/12/05 18:58:46;;;;;;;16.70;9.05;;;;;;;;;;6246346;22;20197;-64
2021/12/05 19:06:50;;;;;;;16.90;12.52;;;;;;;;;;6245758;23;20532;-64
2021/12/05 19:09:26;;;;;;;18.50;12.40;;;;;;;;;;6246231;23;20265;-64
2021/12/05 19:11:53;;;;;;;13.25;9.23;;;;;;;;;;6245989;23;20182;-64
2021/12/05 19:14:22;;;;;;;11.82;7.97;;;;;;;;;;6245661;23;20193;-64
2021/12/05 19:16:51;;;;;;;11.20;8.48;;;;;;;;;;6246058;23;20170;-64
2021/12/05 19:19:21;;;;;;;10.93;8.82;;;;;;;;;;6245840;23;20166;-64
2021/12/05 19:21:50;;;;;;;21.25;12.52;;;;;;;;;;6246067;23;20165;-64
2021/12/05 19:24:18;;;;;;;20.33;13.20;;;;;;;;;;6246065;23;20166;-64
2021/12/05 19:26:46;;;;;;;17.88;11.07;;;;;;;;;;6245509;23;20166;-65
2021/12/05 19:29:16;;;;;;;15.73;9.20;;;;;;;;;;6245449;23;20177;-64
2021/12/05 19:31:43;;;;;;;13.77;8.30;;;;;;;;;;6245692;23;20668;-64
2021/12/05 19:34:13;;;;;;;14.00;9.52;;;;;;;;;;6246047;23;20531;-64
2021/12/05 19:36:40;;;;;;;13.85;9.20;;;;;;;;;;6245346;23;20189;-64
2021/12/05 19:39:09;;;;;;;18.52;7.57;;;;;;;;;;6245690;23;20166;-64